Time;durP1;ratioP1;P1;durP2;ratioP2;P2;SDS_P1;SDS_P2;PMS_P1;PMS_P2;Temp;Humidity;BMP_temperature;BMP_pressure;BME280_temperature;BME280_humidity;BME280_pressure;Samples;Min_cycle;Max_cycle;Signal;HPM_P1;HPM_P2
2022/09/14 00:01:58;;;;;;;16.42;8.98;;;16.70;99.90;;;;;;5047045;28;20537;-64
2022/09/14 00:04:24;;;;;;;15.90;9.25;;;16.60;99.90;;;;;;5052587;28;20017;-67
2022/09/14 00:06:50;;;;;;;25.33;9.82;;;16.70;99.90;;;;;;5036203;28;20064;-66
2022/09/14 00:09:22;;;;;;;15.15;9.18;;;16.80;99.90;;;;;;5035041;28;20029;-65
2022/09/14 00:11:48;;;;;;;28.52;10.25;;;16.80;99.90;;;;;;5032524;28;20036;-64
2022/09/14 00:14:15;;;;;;;16.10;9.23;;;16.80;99.90;;;;;;5035017;28;20055;-67
2022/09/14 00:16:42;;;;;;;15.32;8.48;;;16.90;99.90;;;;;;5033966;28;20029;-67
2022/09/14 00:19:21;;;;;;;14.93;8.98;;;17.00;99.90;;;;;;5032620;28;20029;-66
2022/09/14 00:21:54;;;;;;;14.55;7.97;;;17.00;99.90;;;;;;5032207;28;20071;-67
2022/09/14 00:24:21;;;;;;;14.55;6.57;;;17.10;99.90;;;;;;5032210;28;20036;-67
2022/09/14 00:26:48;;;;;;;16.55;7.03;;;17.20;99.90;;;;;;5036044;28;20479;-67
2022/09/14 00:29:14;;;;;;;14.25;7.60;;;17.20;99.90;;;;;;5032784;28;20026;-66
2022/09/14 00:31:40;;;;;;;11.02;5.07;;;17.20;99.90;;;;;;5038404;28;20025;-66
2022/09/14 00:34:08;;;;;;;9.93;5.63;;;17.20;99.90;;;;;;5032809;28;20105;-66
2022/09/14 00:36:39;;;;;;;9.32;5.25;;;17.30;99.90;;;;;;5034614;28;20052;-63
2022/09/14 00:39:06;;;;;;;9.73;5.90;;;17.30;99.90;;;;;;5031818;28;20033;-66
2022/09/14 00:41:35;;;;;;;11.43;6.03;;;17.30;99.90;;;;;;5039150;28;20340;-64
2022/09/14 00:44:11;;;;;;;10.73;5.47;;;17.40;99.90;;;;;;5032206;28;20037;-63
2022/09/14 00:46:43;;;;;;;11.18;5.47;;;17.40;99.90;;;;;;5036403;28;20037;-68
2022/09/14 00:49:13;;;;;;;8.68;5.18;;;17.40;99.90;;;;;;5049186;28;20079;-66
2022/09/14 00:51:44;;;;;;;8.68;5.38;;;17.30;99.90;;;;;;5046605;28;20483;-62
2022/09/14 00:54:10;;;;;;;14.38;5.30;;;17.30;99.90;;;;;;5031799;28;20021;-66
2022/09/14 00:56:36;;;;;;;10.02;5.70;;;17.30;99.90;;;;;;5031815;28;20460;-66
2022/09/14 00:59:11;;;;;;;8.77;4.97;;;17.30;99.90;;;;;;5044271;28;20503;-65
2022/09/14 01:01:37;;;;;;;8.90;5.45;;;17.30;99.90;;;;;;5048353;28;20078;-67
2022/09/14 01:04:03;;;;;;;9.63;4.82;;;17.30;99.90;;;;;;5051197;28;20020;-66
2022/09/14 01:06:50;;;;;;;10.77;5.35;;;17.30;99.90;;;;;;5050668;28;21364;-66
2022/09/14 01:09:22;;;;;;;14.25;5.70;;;17.30;99.90;;;;;;5048550;28;20037;-67
2022/09/14 01:12:28;;;;;;;12.13;6.15;;;17.30;99.90;;;;;;5031260;28;20044;-66
2022/09/14 01:15:08;;;;;;;8.05;5.30;;;17.30;99.90;;;;;;5031080;28;20044;-66
2022/09/14 01:17:59;;;;;;;11.23;5.47;;;17.30;99.90;;;;;;5031203;28;20040;-66
2022/09/14 01:20:35;;;;;;;9.50;5.05;;;17.30;99.90;;;;;;5031173;28;20021;-66
2022/09/14 01:23:21;;;;;;;10.48;5.32;;;17.40;99.90;;;;;;5032974;28;20036;-67
2022/09/14 01:26:18;;;;;;;11.65;5.35;;;17.30;99.90;;;;;;5042248;28;20443;-69
2022/09/14 01:28:52;;;;;;;10.70;5.40;;;17.30;99.90;;;;;;5047423;28;20029;-67
2022/09/14 01:31:32;;;;;;;12.02;5.95;;;17.20;99.90;;;;;;5042076;28;20031;-67
2022/09/14 01:34:23;;;;;;;10.85;5.97;;;17.20;99.90;;;;;;5032562;28;20550;-67
2022/09/14 01:36:54;;;;;;;7.30;4.95;;;17.10;99.90;;;;;;5032281;28;20052;-67
2022/09/14 01:39:21;;;;;;;11.82;6.50;;;17.10;99.90;;;;;;5032160;28;20049;-68
2022/09/14 01:41:49;;;;;;;9.18;5.53;;;17.00;99.90;;;;;;5032549;28;20455;-68
2022/09/14 01:44:24;;;;;;;9.57;4.90;;;17.00;99.90;;;;;;5033179;28;20021;-67
2022/09/14 01:46:56;;;;;;;10.52;6.10;;;17.00;99.90;;;;;;5032325;28;20075;-67
2022/09/14 01:49:26;;;;;;;8.82;5.68;;;16.90;99.90;;;;;;5043469;28;20034;-67
2022/09/14 01:52:04;;;;;;;11.18;6.43;;;16.70;99.90;;;;;;5031609;28;20018;-67
2022/09/14 01:54:37;;;;;;;12.13;6.50;;;16.70;99.90;;;;;;5031975;28;20029;-66
2022/09/14 01:57:15;;;;;;;11.75;6.47;;;16.70;99.90;;;;;;5033660;28;20104;-67
2022/09/14 01:59:44;;;;;;;14.70;6.88;;;16.60;99.90;;;;;;5038833;28;20050;-66
2022/09/14 02:02:13;;;;;;;9.40;5.55;;;16.70;99.90;;;;;;5034513;28;20029;-68
2022/09/14 02:04:54;;;;;;;9.48;5.25;;;16.70;99.90;;;;;;5034752;28;20021;-66
2022/09/14 02:07:20;;;;;;;20.90;6.05;;;16.60;99.90;;;;;;5037309;28;20029;-68
2022/09/14 02:09:47;;;;;;;11.82;6.43;;;16.60;99.90;;;;;;5034738;28;20053;-68
2022/09/14 02:12:14;;;;;;;15.25;6.57;;;16.50;99.90;;;;;;5034750;28;20035;-68
2022/09/14 02:14:40;;;;;;;11.10;6.18;;;;;;;;;;5034292;28;20422;-68
2022/09/14 02:17:07;;;;;;;12.45;6.07;;;16.40;99.90;;;;;;5034528;28;20029;-67
2022/09/14 02:19:40;;;;;;;13.00;6.45;;;16.40;99.90;;;;;;5034466;28;20072;-68
2022/09/14 02:22:06;;;;;;;12.95;5.90;;;16.40;99.90;;;;;;5034756;28;20033;-68
2022/09/14 02:24:32;;;;;;;11.13;5.32;;;16.40;99.90;;;;;;5034371;28;20074;-67
2022/09/14 02:26:59;;;;;;;10.30;5.63;;;16.30;99.90;;;;;;5034560;28;20175;-66
2022/09/14 02:29:25;;;;;;;13.30;6.65;;;16.20;99.90;;;;;;5034001;28;20491;-67
2022/09/14 02:32:03;;;;;;;11.80;5.45;;;16.20;99.90;;;;;;5034303;28;20045;-68
2022/09/14 02:35:04;;;;;;;10.00;6.35;;;16.30;99.90;;;;;;5034226;28;20116;-68
2022/09/14 02:37:38;;;;;;;10.98;6.53;;;16.30;99.90;;;;;;5040586;28;20137;-68
2022/09/14 02:40:10;;;;;;;10.18;5.47;;;16.30;99.90;;;;;;5032169;28;20046;-65
2022/09/14 02:42:40;;;;;;;15.68;5.47;;;16.30;99.90;;;;;;5035708;28;20033;-67
2022/09/14 02:45:15;;;;;;;11.85;5.80;;;16.40;99.90;;;;;;5032099;28;20030;-66
2022/09/14 02:47:55;;;;;;;10.77;6.47;;;16.40;99.90;;;;;;5032225;28;20490;-67
2022/09/14 02:50:24;;;;;;;14.23;6.47;;;16.40;99.90;;;;;;5049339;28;20021;-68
2022/09/14 02:52:57;;;;;;;9.57;5.22;;;16.40;99.90;;;;;;5050799;28;20021;-66
2022/09/14 02:55:28;;;;;;;11.23;5.03;;;16.30;99.90;;;;;;5050745;28;20033;-67
2022/09/14 02:58:10;;;;;;;12.18;5.55;;;16.20;99.90;;;;;;5051000;28;20040;-67
2022/09/14 03:00:40;;;;;;;11.70;5.70;;;16.20;99.90;;;;;;5031060;28;20034;-68
2022/09/14 03:03:07;;;;;;;8.85;5.28;;;16.00;99.90;;;;;;5031760;28;20022;-67
2022/09/14 03:05:34;;;;;;;14.15;5.60;;;16.10;99.90;;;;;;5031947;28;20071;-67
2022/09/14 03:08:00;;;;;;;16.30;6.05;;;16.20;99.90;;;;;;5045112;28;20132;-67
2022/09/14 03:10:27;;;;;;;13.65;6.90;;;16.30;99.90;;;;;;5050460;28;20028;-66
2022/09/14 03:12:53;;;;;;;21.25;9.00;;;16.40;99.90;;;;;;5033982;28;20479;-66
2022/09/14 03:15:19;;;;;;;13.38;7.40;;;16.40;99.90;;;;;;5036200;28;20034;-68
2022/09/14 03:17:46;;;;;;;10.00;6.40;;;16.30;99.90;;;;;;5033179;28;20025;-67
2022/09/14 03:20:21;;;;;;;13.32;6.72;;;16.30;99.90;;;;;;5036983;28;20028;-68
2022/09/14 03:22:47;;;;;;;14.35;6.40;;;16.20;99.90;;;;;;5032891;28;20365;-67
2022/09/14 03:25:14;;;;;;;11.38;5.95;;;16.20;99.90;;;;;;5033618;28;20368;-64
2022/09/14 03:27:40;;;;;;;8.50;5.55;;;16.20;99.90;;;;;;5032918;28;20372;-67
2022/09/14 03:30:07;;;;;;;11.60;6.50;;;16.10;99.90;;;;;;5030910;28;20488;-66
2022/09/14 03:32:33;;;;;;;12.05;6.18;;;16.10;99.90;;;;;;5032523;28;20539;-67
2022/09/14 03:35:00;;;;;;;9.25;5.53;;;16.10;99.90;;;;;;5032566;28;20022;-67
2022/09/14 03:37:26;;;;;;;10.95;6.18;;;16.10;99.90;;;;;;5032822;28;20025;-63
2022/09/14 03:39:51;;;;;;;8.57;4.85;;;16.00;99.90;;;;;;5032885;28;20124;-68
2022/09/14 03:42:17;;;;;;;12.10;5.43;;;16.00;99.90;;;;;;5032366;28;20488;-65
2022/09/14 03:44:43;;;;;;;11.75;5.55;;;16.00;99.90;;;;;;5032449;28;20024;-67
2022/09/14 03:47:09;;;;;;;10.93;5.25;;;16.00;99.90;;;;;;5032130;28;20118;-68
2022/09/14 03:49:35;;;;;;;12.10;5.90;;;16.00;99.90;;;;;;5032960;28;20049;-67
2022/09/14 03:52:01;;;;;;;9.80;5.68;;;15.90;99.90;;;;;;5036843;28;20026;-66
2022/09/14 03:54:27;;;;;;;10.27;4.78;;;15.90;99.90;;;;;;5032348;28;20040;-66
2022/09/14 03:56:53;;;;;;;12.10;5.53;;;15.90;99.90;;;;;;5032404;28;20464;-66
2022/09/14 03:59:20;;;;;;;9.02;4.90;;;15.90;99.90;;;;;;5032454;28;20030;-68
2022/09/14 04:01:46;;;;;;;9.40;4.97;;;15.90;99.90;;;;;;5034481;28;20035;-68
2022/09/14 04:04:12;;;;;;;9.23;5.00;;;15.80;99.90;;;;;;5031513;28;20100;-67
2022/09/14 04:06:38;;;;;;;10.68;5.53;;;15.80;99.90;;;;;;5033513;28;20551;-67
2022/09/14 04:09:04;;;;;;;12.32;6.35;;;15.80;99.90;;;;;;5031031;28;20112;-68
2022/09/14 04:11:30;;;;;;;13.20;5.60;;;15.90;99.90;;;;;;5039000;28;20471;-66
2022/09/14 04:14:01;;;;;;;10.43;5.93;;;15.80;99.90;;;;;;5042688;28;20036;-66
2022/09/14 04:16:27;;;;;;;11.10;5.95;;;15.80;99.90;;;;;;5037213;28;20083;-66
2022/09/14 04:18:54;;;;;;;9.63;5.88;;;15.70;99.90;;;;;;5032649;28;20475;-67
2022/09/14 04:21:22;;;;;;;10.90;5.55;;;15.50;99.90;;;;;;5034880;28;20038;-67
2022/09/14 04:23:51;;;;;;;8.93;4.75;;;15.20;99.90;;;;;;5031790;28;20105;-65
2022/09/14 04:26:19;;;;;;;13.52;5.80;;;15.20;99.90;;;;;;5046766;28;20021;-66
2022/09/14 04:28:45;;;;;;;10.85;5.57;;;15.20;99.90;;;;;;5051396;28;20013;-67
2022/09/14 04:31:11;;;;;;;10.55;6.13;;;15.20;99.90;;;;;;5035012;28;20043;-68
2022/09/14 04:33:39;;;;;;;13.57;5.57;;;15.20;99.90;;;;;;5031440;28;20032;-67
2022/09/14 04:36:13;;;;;;;12.77;5.10;;;15.50;99.90;;;;;;5035989;28;20025;-62
2022/09/14 04:38:40;;;;;;;12.20;5.95;;;15.70;99.90;;;;;;5035123;28;20505;-65
2022/09/14 04:41:25;;;;;;;8.57;5.35;;;16.00;99.90;;;;;;5047242;28;20387;-67
2022/09/14 04:43:53;;;;;;;12.93;5.18;;;16.40;99.90;;;;;;5031666;28;20083;-65
2022/09/14 04:46:21;;;;;;;11.07;6.13;;;16.40;99.90;;;;;;5031703;28;20030;-66
2022/09/14 04:48:48;;;;;;;11.35;5.80;;;16.30;99.90;;;;;;5031513;28;20411;-67
2022/09/14 04:51:25;;;;;;;9.30;5.07;;;16.20;99.90;;;;;;5025251;28;20025;-67
2022/09/14 04:53:52;;;;;;;9.63;4.57;;;16.50;99.90;;;;;;5030009;28;20034;-67
2022/09/14 04:56:21;;;;;;;10.35;5.90;;;17.40;99.90;;;;;;5031262;28;20087;-66
2022/09/14 04:58:51;;;;;;;9.18;5.78;;;18.20;99.90;;;;;;5032749;28;20092;-68
2022/09/14 05:01:19;;;;;;;13.32;5.85;;;18.90;99.90;;;;;;5034976;28;20025;-67
2022/09/14 05:03:45;;;;;;;8.45;5.20;;;19.40;99.90;;;;;;5031026;28;20092;-68
2022/09/14 05:06:14;;;;;;;10.50;4.68;;;19.70;99.90;;;;;;5044458;28;20454;-67
2022/09/14 05:08:40;;;;;;;8.82;4.97;;;20.20;99.90;;;;;;5034203;28;20045;-68
2022/09/14 05:11:07;;;;;;;9.13;5.35;;;20.80;99.90;;;;;;5031152;28;20076;-67
2022/09/14 05:13:35;;;;;;;9.32;5.32;;;21.20;99.90;;;;;;5031391;28;20032;-68
2022/09/14 05:16:05;;;;;;;8.93;5.25;;;21.40;99.90;;;;;;5030932;28;20018;-66
2022/09/14 05:18:31;;;;;;;10.70;4.82;;;21.80;99.90;;;;;;5031052;28;20024;-67
2022/09/14 05:21:09;;;;;;;8.18;4.90;;;21.80;99.90;;;;;;5034015;28;20018;-65
2022/09/14 05:23:35;;;;;;;10.82;4.78;;;22.10;99.90;;;;;;5034337;28;20033;-63
2022/09/14 05:26:02;;;;;;;7.57;4.20;;;22.30;99.90;;;;;;5030997;28;20034;-67
2022/09/14 05:28:28;;;;;;;10.35;5.47;;;23.00;99.90;;;;;;5031071;28;20022;-66
2022/09/14 05:30:54;;;;;;;8.85;4.43;;;23.00;99.90;;;;;;5030255;28;20053;-66
2022/09/14 05:33:21;;;;;;;7.25;4.85;;;22.00;99.90;;;;;;5034614;28;20060;-64
2022/09/14 05:35:48;;;;;;;12.40;4.70;;;21.30;99.90;;;;;;5031463;28;20025;-68
2022/09/14 05:38:14;;;;;;;10.30;4.60;;;20.80;99.90;;;;;;5030694;28;20040;-67
2022/09/14 05:40:40;;;;;;;10.20;5.03;;;20.60;99.90;;;;;;5030715;28;20352;-66
2022/09/14 05:43:06;;;;;;;9.35;4.80;;;20.40;99.90;;;;;;5034441;28;20187;-68
2022/09/14 05:45:33;;;;;;;9.45;4.63;;;20.10;99.90;;;;;;5030666;28;20507;-64
2022/09/14 05:48:05;;;;;;;8.82;4.95;;;19.90;99.90;;;;;;5030532;28;20479;-67
2022/09/14 05:50:32;;;;;;;12.35;4.97;;;19.90;99.90;;;;;;5031037;28;20482;-65
2022/09/14 05:52:58;;;;;;;12.50;4.80;;;20.00;99.90;;;;;;5031013;28;20068;-65
2022/09/14 05:55:23;;;;;;;8.73;5.32;;;20.00;99.90;;;;;;5030725;28;20081;-68
2022/09/14 05:57:50;;;;;;;12.05;6.07;;;20.00;99.90;;;;;;5030962;28;20396;-67
2022/09/14 06:00:17;;;;;;;9.85;4.60;;;20.00;99.90;;;;;;5030436;28;20029;-68
2022/09/14 06:02:51;;;;;;;7.40;4.28;;;20.10;99.90;;;;;;5030388;28;20040;-66
2022/09/14 06:05:18;;;;;;;11.57;5.82;;;20.00;99.90;;;;;;5030666;28;20034;-67
2022/09/14 06:07:44;;;;;;;12.68;6.07;;;20.00;99.90;;;;;;5032627;28;20082;-67
2022/09/14 06:10:11;;;;;;;13.63;6.10;;;20.00;99.90;;;;;;5027926;28;20036;-67
2022/09/14 06:12:37;;;;;;;14.85;6.43;;;19.80;99.90;;;;;;5026766;28;20029;-66
2022/09/14 06:15:03;;;;;;;9.45;5.72;;;19.90;99.90;;;;;;5029176;28;20494;-68
2022/09/14 06:17:30;;;;;;;10.75;4.88;;;20.00;99.90;;;;;;5029757;28;20488;-67
2022/09/14 06:19:56;;;;;;;10.23;5.63;;;19.90;99.90;;;;;;5032592;28;20101;-68
2022/09/14 06:22:22;;;;;;;10.68;4.85;;;19.50;99.90;;;;;;5029826;28;20148;-68
2022/09/14 06:24:47;;;;;;;16.40;5.55;;;19.80;99.90;;;;;;5029816;28;20480;-67
2022/09/14 06:27:14;;;;;;;13.63;6.32;;;20.20;99.90;;;;;;5029886;28;20021;-66
2022/09/14 06:29:40;;;;;;;11.88;4.68;;;20.50;99.90;;;;;;5026665;28;20033;-68
2022/09/14 06:32:05;;;;;;;10.00;5.25;;;20.70;99.90;;;;;;5027631;28;20025;-68
2022/09/14 06:34:31;;;;;;;10.10;4.95;;;20.70;99.90;;;;;;5029321;28;20514;-68
2022/09/14 06:36:57;;;;;;;13.73;5.18;;;20.80;99.90;;;;;;5029699;28;20028;-68
2022/09/14 06:39:23;;;;;;;9.65;4.53;;;20.80;99.90;;;;;;5029668;28;20444;-67
2022/09/14 06:41:50;;;;;;;9.95;5.07;;;21.10;99.90;;;;;;5029855;28;20112;-67
2022/09/14 06:44:18;;;;;;;15.65;5.60;;;21.20;99.90;;;;;;5033377;28;20036;-67
2022/09/14 06:46:44;;;;;;;19.25;5.65;;;21.20;99.90;;;;;;5033495;28;20040;-68
2022/09/14 06:49:13;;;;;;;9.38;4.10;;;21.50;99.90;;;;;;5033365;28;20035;-67
2022/09/14 06:51:41;;;;;;;10.15;3.88;;;21.60;99.90;;;;;;5032683;28;20026;-67
2022/09/14 06:54:09;;;;;;;15.07;5.28;;;21.80;99.90;;;;;;5046064;28;20621;-68
2022/09/14 06:56:37;;;;;;;11.23;5.28;;;22.00;99.90;;;;;;5033346;28;20030;-67
2022/09/14 06:59:04;;;;;;;19.02;5.30;;;22.10;99.90;;;;;;5040961;28;20041;-68
2022/09/14 07:01:31;;;;;;;15.98;4.82;;;22.40;99.90;;;;;;5040552;28;20038;-68
2022/09/14 07:03:59;;;;;;;12.85;4.90;;;22.40;99.90;;;;;;5034066;28;20026;-67
2022/09/14 07:06:28;;;;;;;11.18;4.07;;;22.60;99.90;;;;;;5050732;28;20025;-68
2022/09/14 07:08:54;;;;;;;14.48;4.80;;;22.70;99.90;;;;;;5052837;28;20033;-68
2022/09/14 07:11:24;;;;;;;11.80;3.80;;;22.90;99.90;;;;;;5041237;28;20025;-67
2022/09/14 07:13:53;;;;;;;9.40;4.50;;;23.00;98.60;;;;;;5052696;28;20386;-69
2022/09/14 07:16:20;;;;;;;10.77;4.28;;;23.10;98.50;;;;;;5038899;28;20071;-69
2022/09/14 07:18:46;;;;;;;8.27;4.00;;;23.00;96.50;;;;;;5035510;28;20017;-68
2022/09/14 07:21:13;;;;;;;7.88;4.03;;;23.20;98.70;;;;;;5052040;28;20025;-68
2022/09/14 07:23:41;;;;;;;6.60;4.00;;;23.50;99.00;;;;;;5038584;28;20021;-68
2022/09/14 07:26:16;;;;;;;8.20;4.03;;;23.70;97.30;;;;;;5042225;28;20025;-68
2022/09/14 07:28:45;;;;;;;7.43;3.95;;;24.20;99.90;;;;;;5034506;28;20018;-68
2022/09/14 07:31:29;;;;;;;7.95;4.22;;;24.00;99.90;;;;;;5034379;28;20075;-68
2022/09/14 07:33:57;;;;;;;8.10;4.32;;;24.20;97.00;;;;;;5046182;28;20036;-68
2022/09/14 07:36:24;;;;;;;8.68;4.43;;;24.10;95.20;;;;;;5037970;28;20490;-65
2022/09/14 07:38:50;;;;;;;9.13;4.57;;;24.20;96.30;;;;;;5036142;28;20026;-69
2022/09/14 07:41:17;;;;;;;11.10;4.70;;;24.10;95.40;;;;;;5042592;28;20033;-68
2022/09/14 07:43:43;;;;;;;8.80;4.28;;;24.20;95.80;;;;;;5053078;28;20457;-68
2022/09/14 07:46:08;;;;;;;8.23;4.85;;;24.40;95.80;;;;;;5047606;28;20105;-67
2022/09/14 07:48:35;;;;;;;7.43;4.13;;;24.30;95.80;;;;;;5039834;28;20021;-68
2022/09/14 07:51:06;;;;;;;7.70;3.40;;;24.50;95.40;;;;;;5047811;28;20524;-67
2022/09/14 07:53:39;;;;;;;6.78;3.28;;;24.50;94.50;;;;;;5051000;28;20029;-68
2022/09/14 07:56:06;;;;;;;8.40;3.88;;;24.40;95.60;;;;;;5048451;28;20025;-68
2022/09/14 07:58:32;;;;;;;7.00;3.20;;;24.60;94.00;;;;;;5040167;28;20053;-68
2022/09/14 08:01:06;;;;;;;6.45;3.85;;;24.50;96.20;;;;;;5032834;28;20029;-68
2022/09/14 08:03:32;;;;;;;7.13;3.22;;;24.70;97.00;;;;;;5032857;28;20033;-69
2022/09/14 08:06:01;;;;;;;14.70;3.35;;;24.90;94.90;;;;;;5032550;28;20025;-68
2022/09/14 08:08:29;;;;;;;4.25;2.42;;;25.10;96.40;;;;;;5046165;28;20099;-68
2022/09/14 08:10:58;;;;;;;5.07;2.63;;;25.30;98.10;;;;;;5032697;28;20044;-69
2022/09/14 08:13:23;;;;;;;5.32;2.92;;;25.40;96.60;;;;;;5032759;28;20057;-69
2022/09/14 08:15:50;;;;;;;7.43;3.28;;;25.40;93.10;;;;;;5033208;28;20053;-69
2022/09/14 08:18:15;;;;;;;9.20;4.03;;;25.30;95.80;;;;;;5046640;28;20248;-69
2022/09/14 08:20:41;;;;;;;5.28;3.13;;;25.40;93.60;;;;;;5036032;28;21530;-69
2022/09/14 08:23:07;;;;;;;6.10;3.03;;;25.50;94.00;;;;;;5038263;28;20176;-68
2022/09/14 08:25:32;;;;;;;8.13;3.58;;;25.60;93.10;;;;;;5045956;28;20108;-69
2022/09/14 08:27:58;;;;;;;9.68;3.72;;;25.60;96.40;;;;;;5050137;28;20041;-68
2022/09/14 08:30:24;;;;;;;8.10;3.58;;;25.80;93.70;;;;;;5035529;28;20067;-67
2022/09/14 08:32:50;;;;;;;7.40;3.08;;;25.80;99.90;;;;;;5032552;28;20460;-67
2022/09/14 08:35:15;;;;;;;3.95;2.50;;;25.90;93.50;;;;;;5037814;28;20033;-69
2022/09/14 08:37:41;;;;;;;4.72;2.72;;;25.90;94.10;;;;;;5032859;28;20061;-68
2022/09/14 08:40:10;;;;;;;8.30;3.28;;;25.90;93.90;;;;;;5033131;28;20494;-69
2022/09/14 08:42:38;;;;;;;9.82;3.17;;;;;;;;;;5048380;28;20051;-69
2022/09/14 08:45:05;;;;;;;4.55;2.75;;;26.20;93.50;;;;;;5035072;28;20052;-69
2022/09/14 08:47:37;;;;;;;10.63;3.10;;;;;;;;;;5033417;28;20503;-68
2022/09/14 08:50:12;;;;;;;4.00;2.58;;;26.50;94.90;;;;;;5042127;28;20041;-69
2022/09/14 08:52:45;;;;;;;6.78;3.13;;;26.70;92.40;;;;;;5037502;28;20037;-69
2022/09/14 08:55:32;;;;;;;5.53;3.00;;;26.70;93.50;;;;;;5033239;28;20509;-68
2022/09/14 08:58:16;;;;;;;6.97;2.75;;;26.90;93.90;;;;;;5040850;28;20041;-69
2022/09/14 09:01:19;;;;;;;7.82;3.08;;;27.10;92.10;;;;;;5039523;28;20659;-68
2022/09/14 09:04:01;;;;;;;7.25;3.17;;;26.90;92.70;;;;;;5034893;28;20044;-68
2022/09/14 09:06:45;;;;;;;;;;;26.90;93.40;;;;;;5034477;28;20049;-69
2022/09/14 09:09:43;;;;;;;5.03;2.92;;;27.00;93.90;;;;;;5053337;28;20259;-68
2022/09/14 09:12:18;;;;;;;4.95;2.85;;;26.70;93.70;;;;;;5044760;28;20112;-69
2022/09/14 09:15:00;;;;;;;4.63;2.72;;;26.70;93.30;;;;;;5031760;28;20147;-66
2022/09/14 09:17:39;;;;;;;3.15;2.40;;;26.80;93.60;;;;;;5032537;28;20037;-69
2022/09/14 09:20:17;;;;;;;4.97;2.25;;;26.70;94.20;;;;;;5039651;28;20037;-69
2022/09/14 09:23:15;;;;;;;4.68;2.25;;;27.00;94.80;;;;;;5032303;28;20045;-69
2022/09/14 09:25:59;;;;;;;6.15;2.05;;;27.30;93.10;;;;;;5016155;28;20514;-69
2022/09/14 09:28:27;;;;;;;5.55;2.72;;;27.50;93.20;;;;;;5042980;28;20040;-69
2022/09/14 09:31:06;;;;;;;4.57;2.22;;;27.60;95.00;;;;;;5016288;28;20053;-64
2022/09/14 09:33:52;;;;;;;5.75;2.65;;;27.70;93.50;;;;;;5028632;28;20040;-64
2022/09/14 09:36:21;;;;;;;3.80;1.95;;;27.90;92.50;;;;;;5008835;28;20478;-67
2022/09/14 09:38:47;;;;;;;6.50;2.58;;;27.60;93.00;;;;;;5022201;28;20103;-65
2022/09/14 09:41:23;;;;;;;9.20;2.47;;;27.50;94.60;;;;;;5027697;28;20057;-68
2022/09/14 09:44:05;;;;;;;3.13;2.22;;;27.50;93.20;;;;;;5026488;28;20048;-67
2022/09/14 09:46:55;;;;;;;5.88;2.80;;;27.40;92.80;;;;;;5026298;28;20039;-68
2022/09/14 09:49:24;;;;;;;4.53;2.15;;;27.30;94.10;;;;;;5026907;28;20079;-68
2022/09/14 09:51:51;;;;;;;6.75;1.98;;;27.30;92.10;;;;;;5026844;28;20026;-68
2022/09/14 09:54:25;;;;;;;7.28;4.22;;;27.50;92.40;;;;;;5028099;28;20017;-64
2022/09/14 09:56:58;;;;;;;6.72;3.13;;;27.60;93.00;;;;;;5028057;28;20068;-68
2022/09/14 09:59:28;;;;;;;4.45;2.22;;;27.70;92.90;;;;;;5029035;28;20446;-65
2022/09/14 10:01:56;;;;;;;4.95;3.10;;;27.70;93.70;;;;;;5032132;28;20136;-65
2022/09/14 10:04:27;;;;;;;5.13;2.28;;;27.80;92.10;;;;;;5031511;28;20014;-65
2022/09/14 10:06:53;;;;;;;9.77;1.90;;;27.80;93.10;;;;;;5037091;28;20098;-67
2022/09/14 10:09:27;;;;;;;1.83;1.50;;;28.10;96.00;;;;;;5041104;28;20041;-69
2022/09/14 10:12:01;;;;;;;4.93;1.90;;;28.10;95.20;;;;;;5045414;28;20448;-70
2022/09/14 10:14:31;;;;;;;2.90;1.55;;;28.00;96.00;;;;;;5036085;28;20025;-70
2022/09/14 10:17:17;;;;;;;3.17;1.70;;;28.00;96.70;;;;;;5046814;28;20087;-70
2022/09/14 10:19:52;;;;;;;5.10;1.95;;;28.10;96.20;;;;;;5035071;28;20033;-69
2022/09/14 10:22:25;;;;;;;3.47;1.80;;;27.90;95.80;;;;;;5034841;28;20029;-68
2022/09/14 10:25:00;;;;;;;5.45;2.13;;;27.90;95.90;;;;;;5034161;28;20026;-69
2022/09/14 10:27:42;;;;;;;6.80;2.38;;;;;;;;;;5035053;28;20064;-69
2022/09/14 10:30:25;;;;;;;3.33;1.77;;;28.30;93.40;;;;;;5034753;28;20032;-68
2022/09/14 10:33:01;;;;;;;7.40;1.77;;;28.30;94.70;;;;;;5034749;28;20353;-68
2022/09/14 10:35:48;;;;;;;8.18;2.42;;;28.20;95.60;;;;;;5048650;28;20033;-69
2022/09/14 10:38:33;;;;;;;2.63;1.40;;;28.30;94.50;;;;;;5034933;28;20026;-70
2022/09/14 10:41:05;;;;;;;3.33;1.67;;;28.50;97.30;;;;;;5034653;28;20037;-68
2022/09/14 10:43:37;;;;;;;;;;;28.40;94.10;;;;;;5034769;28;20052;-68
2022/09/14 10:46:06;;;;;;;3.53;1.60;;;28.40;96.10;;;;;;5034606;28;20008;-69
2022/09/14 10:48:50;;;;;;;4.40;1.55;;;28.70;95.90;;;;;;5034676;28;20021;-69
2022/09/14 10:51:30;;;;;;;2.15;1.45;;;;;;;;;;5034504;28;20108;-70
2022/09/14 10:54:12;;;;;;;3.15;1.38;;;28.90;93.60;;;;;;5034333;28;20503;-69
2022/09/14 10:57:04;;;;;;;3.47;1.52;;;28.80;95.60;;;;;;5034578;28;20037;-70
2022/09/14 10:59:50;;;;;;;1.98;1.27;;;28.70;93.90;;;;;;5034578;28;20024;-69
2022/09/14 11:02:29;;;;;;;1.27;1.05;;;28.60;94.60;;;;;;5034038;28;20095;-66
2022/09/14 11:05:19;;;;;;;3.10;1.40;;;28.50;93.50;;;;;;5034194;28;20480;-70
2022/09/14 11:07:48;;;;;;;4.25;1.35;;;28.60;93.30;;;;;;5047090;28;20041;-69
2022/09/14 11:10:42;;;;;;;2.92;1.23;;;28.80;93.80;;;;;;5034731;28;20035;-69
2022/09/14 11:13:40;;;;;;;4.22;1.17;;;29.00;94.40;;;;;;5033901;28;20030;-68
2022/09/14 11:16:09;;;;;;;1.88;1.05;;;;;;;;;;5023162;28;20061;-69
2022/09/14 11:18:59;;;;;;;3.72;1.35;;;29.10;92.50;;;;;;5016499;28;20040;-70
2022/09/14 11:21:51;;;;;;;4.57;1.10;;;29.10;94.00;;;;;;5031608;28;20229;-69
2022/09/14 11:24:27;;;;;;;4.47;1.13;;;29.30;94.00;;;;;;5031129;28;20120;-70
2022/09/14 11:27:27;;;;;;;5.68;1.13;;;29.20;93.20;;;;;;5031144;28;20052;-69
2022/09/14 11:29:55;;;;;;;2.65;1.05;;;29.00;93.10;;;;;;5030835;28;20591;-69
2022/09/14 11:32:32;;;;;;;1.20;1.10;;;28.70;93.40;;;;;;5030434;28;20036;-69
2022/09/14 11:35:20;;;;;;;1.40;1.20;;;28.70;93.00;;;;;;5030775;28;20025;-68
2022/09/14 11:37:59;;;;;;;3.75;1.73;;;28.70;92.20;;;;;;5030942;28;20116;-70
2022/09/14 11:40:42;;;;;;;4.32;1.33;;;28.70;92.60;;;;;;5031021;28;20030;-69
2022/09/14 11:43:20;;;;;;;2.20;1.35;;;28.50;94.20;;;;;;5031222;28;20037;-70
2022/09/14 11:46:14;;;;;;;5.07;1.50;;;28.50;94.90;;;;;;5026686;28;20142;-70
2022/09/14 11:48:47;;;;;;;3.92;1.80;;;28.60;92.90;;;;;;5023407;28;20045;-66
2022/09/14 11:51:19;;;;;;;2.35;1.38;;;28.70;94.10;;;;;;5036734;28;20044;-70
2022/09/14 11:53:46;;;;;;;5.03;1.35;;;28.80;94.40;;;;;;5039423;28;20025;-69
2022/09/14 11:56:23;;;;;;;2.58;1.58;;;28.90;93.60;;;;;;5033455;28;20472;-69
2022/09/14 11:58:49;;;;;;;2.35;1.40;;;28.90;93.40;;;;;;5032951;28;20025;-69
2022/09/14 12:01:39;;;;;;;1.52;1.23;;;29.30;94.00;;;;;;5047007;28;20053;-69
2022/09/14 12:04:15;;;;;;;3.88;1.35;;;;;;;;;;5025827;28;20544;-70
2022/09/14 12:06:50;;;;;;;2.22;1.38;;;29.60;92.40;;;;;;5030220;28;20502;-69
2022/09/14 12:09:16;;;;;;;2.30;1.30;;;29.50;92.60;;;;;;5030559;28;20046;-70
2022/09/14 12:11:47;;;;;;;2.78;1.45;;;29.70;91.80;;;;;;5030363;28;20099;-69
2022/09/14 12:14:26;;;;;;;4.03;1.50;;;30.10;97.90;;;;;;5030615;28;20025;-69
2022/09/14 12:17:10;;;;;;;4.70;1.17;;;;;;;;;;5030156;28;20499;-70
2022/09/14 12:19:36;;;;;;;2.30;1.10;;;30.10;94.00;;;;;;5030518;28;20480;-69
2022/09/14 12:22:27;;;;;;;1.85;1.05;;;29.90;93.40;;;;;;5029887;28;20049;-69
2022/09/14 12:25:04;;;;;;;3.40;1.58;;;29.70;93.30;;;;;;5030261;28;20037;-69
2022/09/14 12:27:34;;;;;;;1.48;1.10;;;29.70;95.70;;;;;;5030244;28;20554;-69
2022/09/14 12:30:00;;;;;;;2.15;1.17;;;29.70;94.80;;;;;;5029464;28;20476;-68
2022/09/14 12:32:38;;;;;;;4.50;1.23;;;29.90;96.60;;;;;;5029937;28;20022;-69
2022/09/14 12:35:38;;;;;;;3.58;1.15;;;30.00;95.70;;;;;;5029782;28;20038;-68
2022/09/14 12:38:28;;;;;;;3.53;1.15;;;30.00;94.60;;;;;;5029582;28;20034;-68
2022/09/14 12:41:02;;;;;;;2.13;1.13;;;29.90;95.60;;;;;;5018813;28;20495;-69
2022/09/14 12:43:34;;;;;;;2.25;1.50;;;29.90;96.90;;;;;;5032096;28;20018;-69
2022/09/14 12:46:15;;;;;;;4.22;1.08;;;30.00;95.40;;;;;;5032424;28;20036;-68
2022/09/14 12:48:51;;;;;;;2.00;1.02;;;30.10;96.20;;;;;;5032436;28;20025;-68
2022/09/14 12:51:30;;;;;;;2.47;1.15;;;30.10;94.60;;;;;;5032099;28;20029;-69
2022/09/14 12:54:01;;;;;;;3.20;1.10;;;30.10;93.00;;;;;;5046022;28;20116;-68
2022/09/14 12:56:39;;;;;;;3.72;1.15;;;30.20;95.20;;;;;;5032115;28;20060;-69
2022/09/14 12:59:23;;;;;;;1.30;0.95;;;30.20;94.50;;;;;;5045245;28;20087;-69
2022/09/14 13:02:08;;;;;;;3.15;1.55;;;;;;;;;;5031569;28;20132;-69
2022/09/14 13:04:37;;;;;;;5.45;1.42;;;30.40;93.10;;;;;;5031943;28;20037;-69
2022/09/14 13:07:13;;;;;;;4.70;1.10;;;30.40;92.90;;;;;;5038719;28;20047;-69
2022/09/14 13:09:46;;;;;;;1.73;1.25;;;30.40;93.40;;;;;;5061453;28;20040;-69
2022/09/14 13:12:14;;;;;;;4.00;1.58;;;30.20;94.40;;;;;;5032431;28;20029;-69